sensor_id;sensor_type;location;lat;lon;timestamp;pressure;altitude;pressure_sealevel;temperature;humidity
4123;BME280;2075;51.062;6.920;2022-12-18T00:02:07;79759.59;;;-144.48;100.00
4123;BME280;2075;51.062;6.920;2022-12-18T00:04:55;80259.34;;;-144.48;100.00
4123;BME280;2075;51.062;6.920;2022-12-18T00:07:43;80210.78;;;-144.48;100.00
4123;BME280;2075;51.062;6.920;2022-12-18T00:10:28;80722.75;;;-144.48;100.00
4123;BME280;2075;51.062;6.920;2022-12-18T00:13:14;81514.09;;;-144.48;100.00
4123;BME280;2075;51.062;6.920;2022-12-18T00:16:03;81174.06;;;-144.48;100.00
4123;BME280;2075;51.062;6.920;2022-12-18T00:18:50;80805.72;;;-144.48;100.00
4123;BME280;2075;51.062;6.920;2022-12-18T00:21:36;80706.56;;;-144.48;100.00
4123;BME280;2075;51.062;6.920;2022-12-18T00:24:23;80672.16;;;-144.48;100.00
4123;BME280;2075;51.062;6.920;2022-12-18T00:27:08;80376.72;;;-144.48;100.00
4123;BME280;2075;51.062;6.920;2022-12-18T00:29:54;80769.28;;;-144.48;100.00
4123;BME280;2075;51.062;6.920;2022-12-18T00:32:40;80146.03;;;-144.48;100.00
4123;BME280;2075;51.062;6.920;2022-12-18T00:35:26;81293.47;;;-144.48;100.00
4123;BME280;2075;51.062;6.920;2022-12-18T00:38:11;81161.91;;;-144.48;100.00
4123;BME280;2075;51.062;6.920;2022-12-18T00:40:57;79577.50;;;-144.48;100.00
4123;BME280;2075;51.062;6.920;2022-12-18T00:43:42;81170.00;;;-144.48;100.00
4123;BME280;2075;51.062;6.920;2022-12-18T00:46:27;82008.03;;;-144.48;100.00
4123;BME280;2075;51.062;6.920;2022-12-18T00:49:14;79814.22;;;-144.48;100.00
4123;BME280;2075;51.062;6.920;2022-12-18T00:51:59;79049.53;;;-144.48;100.00
4123;BME280;2075;51.062;6.920;2022-12-18T00:54:44;77399.41;;;-144.48;100.00
4123;BME280;2075;51.062;6.920;2022-12-18T00:57:30;74000.50;;;-144.48;100.00
4123;BME280;2075;51.062;6.920;2022-12-18T01:00:17;69192.84;;;-144.48;100.00
4123;BME280;2075;51.062;6.920;2022-12-18T01:03:02;66096.25;;;-144.48;100.00
4123;BME280;2075;51.062;6.920;2022-12-18T01:05:49;65838.34;;;-144.48;100.00
4123;BME280;2075;51.062;6.920;2022-12-18T01:08:36;66612.16;;;-144.48;100.00
4123;BME280;2075;51.062;6.920;2022-12-18T01:11:22;63517.94;;;-144.48;100.00
4123;BME280;2075;51.062;6.920;2022-12-18T01:14:08;58624.47;;;-144.48;100.00
4123;BME280;2075;51.062;6.920;2022-12-18T01:16:55;58881.84;;;-144.48;100.00
4123;BME280;2075;51.062;6.920;2022-12-18T01:19:40;60169.00;;;-144.48;100.00
4123;BME280;2075;51.062;6.920;2022-12-18T01:22:29;64033.44;;;-144.48;100.00
4123;BME280;2075;51.062;6.920;2022-12-18T01:25:14;65838.34;;;-144.48;100.00
4123;BME280;2075;51.062;6.920;2022-12-18T01:28:01;65322.56;;;-144.48;100.00
4123;BME280;2075;51.062;6.920;2022-12-18T01:30:46;65322.56;;;-144.48;100.00
4123;BME280;2075;51.062;6.920;2022-12-18T01:33:31;63775.66;;;-144.48;100.00
4123;BME280;2075;51.062;6.920;2022-12-18T01:36:18;65580.44;;;-144.48;100.00
4123;BME280;2075;51.062;6.920;2022-12-18T01:39:09;68934.69;;;-144.48;100.00
4123;BME280;2075;51.062;6.920;2022-12-18T01:41:55;72891.84;;;-144.48;100.00
4123;BME280;2075;51.062;6.920;2022-12-18T01:44:59;73277.50;;;-144.48;100.00
4123;BME280;2075;51.062;6.920;2022-12-18T01:47:46;73245.19;;;-144.48;100.00
4123;BME280;2075;51.062;6.920;2022-12-18T01:50:36;70742.19;;;-144.48;100.00
4123;BME280;2075;51.062;6.920;2022-12-18T01:53:23;69709.19;;;-144.48;100.00
4123;BME280;2075;51.062;6.920;2022-12-18T01:56:12;69709.19;;;-144.48;100.00
4123;BME280;2075;51.062;6.920;2022-12-18T01:59:02;68160.31;;;-144.48;100.00
4123;BME280;2075;51.062;6.920;2022-12-18T02:01:50;66612.16;;;-144.48;100.00
4123;BME280;2075;51.062;6.920;2022-12-18T02:04:35;66096.25;;;-144.48;100.00
4123;BME280;2075;51.062;6.920;2022-12-18T02:07:26;67128.13;;;-144.48;100.00
4123;BME280;2075;51.062;6.920;2022-12-18T02:10:15;65838.34;;;-144.48;100.00
4123;BME280;2075;51.062;6.920;2022-12-18T02:13:12;66870.13;;;-144.48;100.00
4123;BME280;2075;51.062;6.920;2022-12-18T02:16:05;66870.13;;;-144.48;100.00
4123;BME280;2075;51.062;6.920;2022-12-18T02:18:56;68418.44;;;-144.48;100.00
4123;BME280;2075;51.062;6.920;2022-12-18T02:21:48;71840.06;;;-144.48;100.00
4123;BME280;2075;51.062;6.920;2022-12-18T02:24:42;75632.84;;;-144.48;100.00
4123;BME280;2075;51.062;6.920;2022-12-18T02:27:39;78823.00;;;-144.48;100.00
4123;BME280;2075;51.062;6.920;2022-12-18T02:30:29;80801.66;;;-144.48;100.00
4123;BME280;2075;51.062;6.920;2022-12-18T02:33:17;82155.81;;;-144.48;100.00
4123;BME280;2075;51.062;6.920;2022-12-18T02:36:05;83160.16;;;-144.48;100.00
4123;BME280;2075;51.062;6.920;2022-12-18T02:38:52;82824.00;;;-144.48;100.00
4123;BME280;2075;51.062;6.920;2022-12-18T02:41:39;82157.84;;;-144.48;100.00
4123;BME280;2075;51.062;6.920;2022-12-18T02:44:27;80919.06;;;-144.48;100.00
4123;BME280;2075;51.062;6.920;2022-12-18T02:47:14;81129.53;;;-144.48;100.00
4123;BME280;2075;51.062;6.920;2022-12-18T02:50:05;79759.59;;;-144.48;100.00
4123;BME280;2075;51.062;6.920;2022-12-18T02:53:04;78742.09;;;-144.48;100.00
4123;BME280;2075;51.062;6.920;2022-12-18T02:55:59;76172.41;;;-144.48;100.00
4123;BME280;2075;51.062;6.920;2022-12-18T02:58:56;72946.34;;;-144.48;100.00
4123;BME280;2075;51.062;6.920;2022-12-18T03:02:17;69709.19;;;-144.48;100.00
4123;BME280;2075;51.062;6.920;2022-12-18T03:05:11;69451.00;;;-144.48;100.00
4123;BME280;2075;51.062;6.920;2022-12-18T03:08:03;67386.16;;;-144.48;100.00
4123;BME280;2075;51.062;6.920;2022-12-18T03:10:57;65838.34;;;-144.48;100.00
4123;BME280;2075;51.062;6.920;2022-12-18T03:13:46;68676.53;;;-144.48;100.00
4123;BME280;2075;51.062;6.920;2022-12-18T03:16:35;66096.25;;;-144.48;100.00
4123;BME280;2075;51.062;6.920;2022-12-18T03:19:26;64806.84;;;-144.48;100.00
4123;BME280;2075;51.062;6.920;2022-12-18T03:22:16;64291.22;;;-144.48;100.00
4123;BME280;2075;51.062;6.920;2022-12-18T03:25:10;61971.84;;;-144.48;100.00
4123;BME280;2075;51.062;6.920;2022-12-18T03:27:58;61199.09;;;-144.48;100.00
4123;BME280;2075;51.062;6.920;2022-12-18T03:30:47;60426.50;;;-144.48;100.00
4123;BME280;2075;51.062;6.920;2022-12-18T03:33:38;58881.84;;;-144.48;100.00
4123;BME280;2075;51.062;6.920;2022-12-18T03:36:26;59654.09;;;-144.48;100.00
4123;BME280;2075;51.062;6.920;2022-12-18T03:39:14;59654.09;;;-144.48;100.00
4123;BME280;2075;51.062;6.920;2022-12-18T03:42:10;59911.53;;;-144.48;100.00
4123;BME280;2075;51.062;6.920;2022-12-18T03:45:09;61199.09;;;-144.48;100.00
4123;BME280;2075;51.062;6.920;2022-12-18T03:48:01;61199.09;;;-144.48;100.00
4123;BME280;2075;51.062;6.920;2022-12-18T03:50:57;58881.84;;;-144.48;100.00
4123;BME280;2075;51.062;6.920;2022-12-18T03:53:49;56823.38;;;-144.48;100.00
4123;BME280;2075;51.062;6.920;2022-12-18T03:56:43;57595.16;;;-144.48;100.00
4123;BME280;2075;51.062;6.920;2022-12-18T03:59:30;58109.78;;;-144.48;100.00
4123;BME280;2075;51.062;6.920;2022-12-18T04:02:17;59654.09;;;-144.48;100.00
4123;BME280;2075;51.062;6.920;2022-12-18T04:05:07;59396.66;;;-144.48;100.00
4123;BME280;2075;51.062;6.920;2022-12-18T04:07:56;59396.66;;;-144.48;100.00
4123;BME280;2075;51.062;6.920;2022-12-18T04:10:43;59911.53;;;-144.48;100.00
4123;BME280;2075;51.062;6.920;2022-12-18T04:13:31;60169.00;;;-144.48;100.00
4123;BME280;2075;51.062;6.920;2022-12-18T04:16:19;60169.00;;;-144.48;100.00
4123;BME280;2075;51.062;6.920;2022-12-18T04:19:08;59139.22;;;-144.48;100.00
4123;BME280;2075;51.062;6.920;2022-12-18T04:21:58;57852.44;;;-144.48;100.00
4123;BME280;2075;51.062;6.920;2022-12-18T04:24:43;57337.88;;;-144.48;100.00
4123;BME280;2075;51.062;6.920;2022-12-18T04:27:38;56566.16;;;-144.48;100.00
4123;BME280;2075;51.062;6.920;2022-12-18T04:30:24;55537.47;;;-144.48;100.00
4123;BME280;2075;51.062;6.920;2022-12-18T04:33:10;53738.03;;;-144.48;100.00
4123;BME280;2075;51.062;6.920;2022-12-18T04:35:56;51939.56;;;-144.48;100.00
4123;BME280;2075;51.062;6.920;2022-12-18T04:38:42;50912.28;;;-144.48;100.00
4123;BME280;2075;51.062;6.920;2022-12-18T04:41:32;50142.03;;;-144.48;100.00
4123;BME280;2075;51.062;6.920;2022-12-18T04:44:18;50912.28;;;-144.48;100.00
4123;BME280;2075;51.062;6.920;2022-12-18T04:47:04;48345.44;;;-144.48;100.00
4123;BME280;2075;51.062;6.920;2022-12-18T04:49:49;45267.84;;;-144.48;100.00
4123;BME280;2075;51.062;6.920;2022-12-18T04:52:35;44242.59;;;-144.48;100.00
4123;BME280;2075;51.062;6.920;2022-12-18T04:55:20;44498.88;;;-144.48;100.00
4123;BME280;2075;51.062;6.920;2022-12-18T04:58:09;43473.84;;;-144.48;100.00
4123;BME280;2075;51.062;6.920;2022-12-18T05:00:55;42193.03;;;-144.48;100.00
4123;BME280;2075;51.062;6.920;2022-12-18T05:03:41;42193.03;;;-144.48;100.00
4123;BME280;2075;51.062;6.920;2022-12-18T05:06:26;43473.84;;;-144.48;100.00
4123;BME280;2075;51.062;6.920;2022-12-18T05:09:12;43217.66;;;-144.48;100.00
4123;BME280;2075;51.062;6.920;2022-12-18T05:11:57;42449.16;;;-144.48;100.00
4123;BME280;2075;51.062;6.920;2022-12-18T05:14:43;42449.16;;;-144.48;100.00
4123;BME280;2075;51.062;6.920;2022-12-18T05:17:29;43217.66;;;-144.48;100.00
4123;BME280;2075;51.062;6.920;2022-12-18T05:20:15;45011.50;;;-144.48;100.00
4123;BME280;2075;51.062;6.920;2022-12-18T05:23:02;47062.78;;;-144.48;100.00
4123;BME280;2075;51.062;6.920;2022-12-18T05:25:51;47319.28;;;-144.48;100.00
4123;BME280;2075;51.062;6.920;2022-12-18T05:28:37;46806.28;;;-144.48;100.00
4123;BME280;2075;51.062;6.920;2022-12-18T05:31:22;45524.19;;;-144.48;100.00
4123;BME280;2075;51.062;6.920;2022-12-18T05:34:09;43730.06;;;-144.48;100.00
4123;BME280;2075;51.062;6.920;2022-12-18T05:36:54;44242.59;;;-144.48;100.00
4123;BME280;2075;51.062;6.920;2022-12-18T05:39:40;41424.75;;;-144.48;100.00
4123;BME280;2075;51.062;6.920;2022-12-18T05:42:25;39376.91;;;-144.48;100.00
4123;BME280;2075;51.062;6.920;2022-12-18T05:45:11;39121.03;;;-144.48;100.00
4123;BME280;2075;51.062;6.920;2022-12-18T05:47:56;37330.31;;;-144.48;100.00
4123;BME280;2075;51.062;6.920;2022-12-18T05:50:45;37841.84;;;-144.48;100.00
4123;BME280;2075;51.062;6.920;2022-12-18T05:53:31;39632.81;;;-144.48;100.00
4123;BME280;2075;51.062;6.920;2022-12-18T05:56:17;40656.66;;;-144.48;100.00
4123;BME280;2075;51.062;6.920;2022-12-18T05:59:03;40144.72;;;-144.48;100.00
4123;BME280;2075;51.062;6.920;2022-12-18T06:01:48;40144.72;;;-144.48;100.00
4123;BME280;2075;51.062;6.920;2022-12-18T06:04:34;39888.75;;;-144.48;100.00
4123;BME280;2075;51.062;6.920;2022-12-18T06:07:21;42449.16;;;-144.48;100.00
4123;BME280;2075;51.062;6.920;2022-12-18T06:10:07;43730.06;;;-144.48;100.00
4123;BME280;2075;51.062;6.920;2022-12-18T06:12:52;43217.66;;;-144.48;100.00
4123;BME280;2075;51.062;6.920;2022-12-18T06:15:37;40912.69;;;-144.48;100.00
4123;BME280;2075;51.062;6.920;2022-12-18T06:18:23;38609.28;;;-144.48;100.00
4123;BME280;2075;51.062;6.920;2022-12-18T06:21:08;37586.06;;;-144.48;100.00
4123;BME280;2075;51.062;6.920;2022-12-18T06:23:55;36051.84;;;-144.48;100.00
4123;BME280;2075;51.062;6.920;2022-12-18T06:26:41;33496.31;;;-144.48;100.00
4123;BME280;2075;51.062;6.920;2022-12-18T06:29:26;31963.94;;;-144.48;100.00
4123;BME280;2075;51.062;6.920;2022-12-18T06:32:11;32730.03;;;-144.48;100.00
4123;BME280;2075;51.062;6.920;2022-12-18T06:34:57;32474.66;;;-144.48;100.00
4123;BME280;2075;51.062;6.920;2022-12-18T06:37:43;33240.88;;;-144.48;100.00
4123;BME280;2075;51.062;6.920;2022-12-18T06:40:30;34773.81;;;-144.48;100.00
4123;BME280;2075;51.062;6.920;2022-12-18T06:43:15;36307.50;;;-144.48;100.00
4123;BME280;2075;51.062;6.920;2022-12-18T06:46:01;38353.47;;;-144.48;100.00
4123;BME280;2075;51.062;6.920;2022-12-18T06:48:48;39888.75;;;-144.48;100.00
4123;BME280;2075;51.062;6.920;2022-12-18T06:51:33;38865.16;;;-144.48;100.00
4123;BME280;2075;51.062;6.920;2022-12-18T06:54:19;38609.28;;;-144.48;100.00
4123;BME280;2075;51.062;6.920;2022-12-18T06:57:06;39632.81;;;-144.48;100.00
4123;BME280;2075;51.062;6.920;2022-12-18T06:59:51;37330.31;;;-144.48;100.00
4123;BME280;2075;51.062;6.920;2022-12-18T07:02:37;37074.59;;;-144.48;100.00
4123;BME280;2075;51.062;6.920;2022-12-18T07:05:22;37330.31;;;-144.48;100.00
4123;BME280;2075;51.062;6.920;2022-12-18T07:08:08;38097.66;;;-144.48;100.00
4123;BME280;2075;51.062;6.920;2022-12-18T07:10:53;39888.75;;;-144.48;100.00
4123;BME280;2075;51.062;6.920;2022-12-18T07:13:40;41680.84;;;-144.48;100.00
4123;BME280;2075;51.062;6.920;2022-12-18T07:16:25;43473.84;;;-144.48;100.00
4123;BME280;2075;51.062;6.920;2022-12-18T07:19:12;46036.97;;;-144.48;100.00
4123;BME280;2075;51.062;6.920;2022-12-18T07:21:57;48088.88;;;-144.48;100.00
4123;BME280;2075;51.062;6.920;2022-12-18T07:24:43;49885.31;;;-144.48;100.00
4123;BME280;2075;51.062;6.920;2022-12-18T07:27:28;51939.56;;;-144.48;100.00
4123;BME280;2075;51.062;6.920;2022-12-18T07:30:15;52453.31;;;-144.48;100.00
4123;BME280;2075;51.062;6.920;2022-12-18T07:33:00;52710.22;;;-144.48;100.00
4123;BME280;2075;51.062;6.920;2022-12-18T07:35:45;54252.06;;;-144.48;100.00
4123;BME280;2075;51.062;6.920;2022-12-18T07:38:35;55794.63;;;-144.48;100.00
4123;BME280;2075;51.062;6.920;2022-12-18T07:41:23;57595.16;;;-144.48;100.00
4123;BME280;2075;51.062;6.920;2022-12-18T07:44:09;59654.09;;;-144.48;100.00
4123;BME280;2075;51.062;6.920;2022-12-18T07:46:56;60426.50;;;-144.48;100.00
4123;BME280;2075;51.062;6.920;2022-12-18T07:49:41;59396.66;;;-144.48;100.00
4123;BME280;2075;51.062;6.920;2022-12-18T07:52:27;57852.44;;;-144.48;100.00
4123;BME280;2075;51.062;6.920;2022-12-18T07:55:12;61199.09;;;-144.48;100.00
4123;BME280;2075;51.062;6.920;2022-12-18T07:58:00;64291.22;;;-144.48;100.00
4123;BME280;2075;51.062;6.920;2022-12-18T08:00:46;66612.16;;;-144.48;100.00
4123;BME280;2075;51.062;6.920;2022-12-18T08:03:33;68934.69;;;-144.48;100.00
4123;BME280;2075;51.062;6.920;2022-12-18T08:06:18;69451.00;;;-144.48;100.00
4123;BME280;2075;51.062;6.920;2022-12-18T08:09:04;72665.69;;;-144.48;100.00
4123;BME280;2075;51.062;6.920;2022-12-18T08:11:49;74356.00;;;-144.48;100.00
4123;BME280;2075;51.062;6.920;2022-12-18T08:14:35;77549.00;;;-144.48;100.00
4123;BME280;2075;51.062;6.920;2022-12-18T08:17:20;77813.88;;;-144.48;100.00
4123;BME280;2075;51.062;6.920;2022-12-18T08:20:11;79603.81;;;-144.48;100.00
4123;BME280;2075;51.062;6.920;2022-12-18T08:22:58;82089.03;;;-144.48;100.00
4123;BME280;2075;51.062;6.920;2022-12-18T08:25:44;83312.03;;;-144.48;100.00
4123;BME280;2075;51.062;6.920;2022-12-18T08:28:30;84249.84;;;-144.48;100.00
4123;BME280;2075;51.062;6.920;2022-12-18T08:31:15;86255.97;;;-144.48;100.00
4123;BME280;2075;51.062;6.920;2022-12-18T08:34:01;87742.03;;;-144.48;100.00
4123;BME280;2075;51.062;6.920;2022-12-18T08:36:49;89510.75;;;-144.48;100.00
4123;BME280;2075;51.062;6.920;2022-12-18T08:39:35;90760.78;;;-144.48;100.00
4123;BME280;2075;51.062;6.920;2022-12-18T08:42:21;91820.38;;;-144.48;100.00
4123;BME280;2075;51.062;6.920;2022-12-18T08:45:24;92626.47;;;-144.48;100.00
4123;BME280;2075;51.062;6.920;2022-12-18T08:48:11;93099.66;;;-144.48;100.00
4123;BME280;2075;51.062;6.920;2022-12-18T08:50:59;93603.38;;;-144.48;100.00
4123;BME280;2075;51.062;6.920;2022-12-18T08:53:46;93938.56;;;-144.48;100.00
4123;BME280;2075;51.062;6.920;2022-12-18T08:56:32;94129.53;;;-144.48;100.00
4123;BME280;2075;51.062;6.920;2022-12-18T08:59:18;94342.84;;;-144.48;100.00
4123;BME280;2075;51.062;6.920;2022-12-18T09:02:04;94456.63;;;-144.48;100.00
4123;BME280;2075;51.062;6.920;2022-12-18T09:04:49;94635.41;;;-144.48;100.00
4123;BME280;2075;51.062;6.920;2022-12-18T09:07:35;94844.72;;;-144.48;100.00
4123;BME280;2075;51.062;6.920;2022-12-18T09:10:27;94907.69;;;-144.48;100.00
4123;BME280;2075;51.062;6.920;2022-12-18T09:13:13;94966.63;;;-144.48;100.00
4123;BME280;2075;51.062;6.920;2022-12-18T09:15:59;95047.91;;;-144.48;100.00
4123;BME280;2075;51.062;6.920;2022-12-18T09:18:45;95062.13;;;-144.48;100.00
4123;BME280;2075;51.062;6.920;2022-12-18T09:21:32;95133.25;;;-144.48;100.00
4123;BME280;2075;51.062;6.920;2022-12-18T09:24:18;95129.19;;;-144.48;100.00
4123;BME280;2075;51.062;6.920;2022-12-18T09:27:12;95190.16;;;-144.48;100.00
4123;BME280;2075;51.062;6.920;2022-12-18T09:29:58;95157.66;;;-144.48;100.00
4123;BME280;2075;51.062;6.920;2022-12-18T09:32:46;95200.31;;;-144.48;100.00
4123;BME280;2075;51.062;6.920;2022-12-18T09:35:38;95226.75;;;-144.48;100.00
4123;BME280;2075;51.062;6.920;2022-12-18T09:38:24;95269.41;;;-144.48;100.00
4123;BME280;2075;51.062;6.920;2022-12-18T09:41:23;95236.91;;;-144.48;100.00
4123;BME280;2075;51.062;6.920;2022-12-18T09:44:22;95114.97;;;-144.48;100.00
4123;BME280;2075;51.062;6.920;2022-12-18T09:47:12;95285.69;;;-144.48;100.00
4123;BME280;2075;51.062;6.920;2022-12-18T09:50:04;95314.13;;;-144.48;100.00
4123;BME280;2075;51.062;6.920;2022-12-18T09:52:53;95322.25;;;-144.48;100.00
4123;BME280;2075;51.062;6.920;2022-12-18T09:55:41;95338.53;;;-144.48;100.00
4123;BME280;2075;51.062;6.920;2022-12-18T09:58:31;95641.34;;;-144.48;100.00
4123;BME280;2075;51.062;6.920;2022-12-18T10:01:22;95324.28;;;-144.48;100.00
4123;BME280;2075;51.062;6.920;2022-12-18T10:04:15;95245.03;;;-144.48;100.00
4123;BME280;2075;51.062;6.920;2022-12-18T10:07:08;95322.25;;;-144.48;96.99
4123;BME280;2075;51.062;6.920;2022-12-18T10:10:03;95505.16;;;-144.48;90.75
4123;BME280;2075;51.062;6.920;2022-12-18T10:12:55;95350.72;;;-144.48;88.88
4123;BME280;2075;51.062;6.920;2022-12-18T10:15:54;95275.50;;;-144.48;88.03
4123;BME280;2075;51.062;6.920;2022-12-18T10:18:57;95360.88;;;-144.48;87.77
4123;BME280;2075;51.062;6.920;2022-12-18T10:21:51;95356.81;;;-144.48;86.92
4123;BME280;2075;51.062;6.920;2022-12-18T10:24:45;95352.75;;;-144.48;86.90
4123;BME280;2075;51.062;6.920;2022-12-18T10:27:34;95352.75;;;-144.48;86.48
4123;BME280;2075;51.062;6.920;2022-12-18T10:30:22;95334.44;;;-144.48;85.89
4123;BME280;2075;51.062;6.920;2022-12-18T10:33:10;95336.50;;;-144.48;85.23
4123;BME280;2075;51.062;6.920;2022-12-18T10:36:01;95275.50;;;-144.48;84.47
4123;BME280;2075;51.062;6.920;2022-12-18T10:38:47;95265.34;;;-144.48;83.94
4123;BME280;2075;51.062;6.920;2022-12-18T10:41:33;95366.97;;;-144.48;83.47
4123;BME280;2075;51.062;6.920;2022-12-18T10:44:21;95389.31;;;-144.48;83.30
4123;BME280;2075;51.062;6.920;2022-12-18T10:47:12;95381.19;;;-144.48;83.40
4123;BME280;2075;51.062;6.920;2022-12-18T10:49:59;95379.16;;;-144.48;82.92
4123;BME280;2075;51.062;6.920;2022-12-18T10:52:55;95204.38;;;-144.48;82.17
4123;BME280;2075;51.062;6.920;2022-12-18T10:55:45;95129.19;;;-144.48;81.37
4123;BME280;2075;51.062;6.920;2022-12-18T10:58:33;95354.78;;;-144.48;80.14
4123;BME280;2075;51.062;6.920;2022-12-18T11:01:19;95346.66;;;-144.48;79.95
4123;BME280;2075;51.062;6.920;2022-12-18T11:04:08;95338.53;;;-144.48;79.94
4123;BME280;2075;51.062;6.920;2022-12-18T11:06:57;95377.13;;;-144.48;79.47
4123;BME280;2075;51.062;6.920;2022-12-18T11:10:15;95318.19;;;-144.48;78.57
4123;BME280;2075;51.062;6.920;2022-12-18T11:13:12;95371.03;;;-144.48;77.89
4123;BME280;2075;51.062;6.920;2022-12-18T11:16:18;95854.75;;;-144.48;77.48
4123;BME280;2075;51.062;6.920;2022-12-18T11:19:20;95251.13;;;-144.48;77.77
4123;BME280;2075;51.062;6.920;2022-12-18T11:22:21;95139.34;;;-144.48;77.44
4123;BME280;2075;51.062;6.920;2022-12-18T11:25:18;95328.34;;;-144.48;76.44
4123;BME280;2075;51.062;6.920;2022-12-18T11:28:05;95314.13;;;-144.48;76.28
4123;BME280;2075;51.062;6.920;2022-12-18T11:31:29;95338.53;;;-144.48;76.44
4123;BME280;2075;51.062;6.920;2022-12-18T11:34:21;95326.31;;;-144.48;75.86
4123;BME280;2075;51.062;6.920;2022-12-18T11:37:09;95708.41;;;-144.48;75.39
4123;BME280;2075;51.062;6.920;2022-12-18T11:40:00;95243.00;;;-144.48;76.73
4123;BME280;2075;51.062;6.920;2022-12-18T11:42:53;95364.94;;;-144.48;76.54
4123;BME280;2075;51.062;6.920;2022-12-18T11:45:43;95369.00;;;-144.48;76.89
4123;BME280;2075;51.062;6.920;2022-12-18T11:48:34;95360.88;;;-144.48;77.18
4123;BME280;2075;51.062;6.920;2022-12-18T11:51:32;95314.13;;;-144.48;77.39
4123;BME280;2075;51.062;6.920;2022-12-18T11:54:19;95308.03;;;-144.48;76.86
4123;BME280;2075;51.062;6.920;2022-12-18T11:57:14;95275.50;;;-144.48;76.95
4123;BME280;2075;51.062;6.920;2022-12-18T12:00:07;95350.72;;;-144.48;76.86
4123;BME280;2075;51.062;6.920;2022-12-18T12:03:21;95328.34;;;-144.48;76.84
4123;BME280;2075;51.062;6.920;2022-12-18T12:06:17;95310.06;;;-144.48;76.64
4123;BME280;2075;51.062;6.920;2022-12-18T12:09:13;95301.94;;;-144.48;76.22
4123;BME280;2075;51.062;6.920;2022-12-18T12:12:15;95344.63;;;-144.48;76.05
4123;BME280;2075;51.062;6.920;2022-12-18T12:15:15;95318.19;;;-144.48;75.97
4123;BME280;2075;51.062;6.920;2022-12-18T12:18:12;95261.28;;;-144.48;75.76
4123;BME280;2075;51.062;6.920;2022-12-18T12:21:05;95354.78;;;-144.48;76.60
4123;BME280;2075;51.062;6.920;2022-12-18T12:24:00;95362.91;;;-144.48;76.83
4123;BME280;2075;51.062;6.920;2022-12-18T12:26:57;95348.69;;;-144.48;76.81
4123;BME280;2075;51.062;6.920;2022-12-18T12:30:00;95322.25;;;-144.48;76.98
4123;BME280;2075;51.062;6.920;2022-12-18T12:33:04;95336.50;;;-144.48;77.51
4123;BME280;2075;51.062;6.920;2022-12-18T12:36:04;95366.97;;;-144.48;77.85
4123;BME280;2075;51.062;6.920;2022-12-18T12:38:56;95360.88;;;-144.48;77.59
4123;BME280;2075;51.062;6.920;2022-12-18T12:41:45;95393.38;;;-144.48;77.53
4123;BME280;2075;51.062;6.920;2022-12-18T12:44:52;95338.53;;;-144.48;78.07
4123;BME280;2075;51.062;6.920;2022-12-18T12:47:41;95346.66;;;-144.48;78.65
4123;BME280;2075;51.062;6.920;2022-12-18T12:50:30;95336.50;;;-144.48;78.10
4123;BME280;2075;51.062;6.920;2022-12-18T12:53:25;95346.66;;;-144.48;78.16
4123;BME280;2075;51.062;6.920;2022-12-18T12:56:14;95338.53;;;-144.48;78.43
4123;BME280;2075;51.062;6.920;2022-12-18T12:59:06;95273.47;;;-144.48;77.96
4123;BME280;2075;51.062;6.920;2022-12-18T13:02:01;95299.91;;;-144.48;78.06
4123;BME280;2075;51.062;6.920;2022-12-18T13:04:56;95375.09;;;-144.48;78.25
4123;BME280;2075;51.062;6.920;2022-12-18T13:07:50;95492.97;;;-144.48;77.78
4123;BME280;2075;51.062;6.920;2022-12-18T13:10:38;95273.47;;;-144.48;78.35
4123;BME280;2075;51.062;6.920;2022-12-18T13:13:25;95332.41;;;-144.48;78.45
4123;BME280;2075;51.062;6.920;2022-12-18T13:16:09;95348.69;;;-144.48;78.62
4123;BME280;2075;51.062;6.920;2022-12-18T13:18:56;94879.25;;;-144.48;79.41
4123;BME280;2075;51.062;6.920;2022-12-18T13:21:52;95366.97;;;-144.48;78.86
4123;BME280;2075;51.062;6.920;2022-12-18T13:24:39;95354.78;;;-144.48;78.59
4123;BME280;2075;51.062;6.920;2022-12-18T13:27:57;95338.53;;;-144.48;79.36
4123;BME280;2075;51.062;6.920;2022-12-18T13:30:49;95340.56;;;-144.48;78.83
4123;BME280;2075;51.062;6.920;2022-12-18T13:33:41;95332.41;;;-144.48;78.91
4123;BME280;2075;51.062;6.920;2022-12-18T13:36:31;95379.16;;;-144.48;79.21
4123;BME280;2075;51.062;6.920;2022-12-18T13:39:32;95049.94;;;-144.48;79.40
4123;BME280;2075;51.062;6.920;2022-12-18T13:42:41;95366.97;;;-144.48;79.50
4123;BME280;2075;51.062;6.920;2022-12-18T13:45:46;95377.13;;;-144.48;79.28
4123;BME280;2075;51.062;6.920;2022-12-18T13:48:35;95350.72;;;-144.48;79.78
4123;BME280;2075;51.062;6.920;2022-12-18T13:51:23;95379.16;;;-144.48;79.21
4123;BME280;2075;51.062;6.920;2022-12-18T13:54:18;95279.59;;;-144.48;79.70
4123;BME280;2075;51.062;6.920;2022-12-18T13:57:24;95328.34;;;-144.48;79.88
4123;BME280;2075;51.062;6.920;2022-12-18T14:00:26;95326.31;;;-144.48;80.03
4123;BME280;2075;51.062;6.920;2022-12-18T14:03:19;95393.38;;;-144.48;80.25
4123;BME280;2075;51.062;6.920;2022-12-18T14:06:07;95350.72;;;-144.48;79.88
4123;BME280;2075;51.062;6.920;2022-12-18T14:08:53;95366.97;;;-144.48;79.88
4123;BME280;2075;51.062;6.920;2022-12-18T14:11:38;95393.38;;;-144.48;79.65
4123;BME280;2075;51.062;6.920;2022-12-18T14:14:24;95521.44;;;-144.48;80.08
4123;BME280;2075;51.062;6.920;2022-12-18T14:17:12;95326.31;;;-144.48;80.31
4123;BME280;2075;51.062;6.920;2022-12-18T14:19:58;95387.28;;;-144.48;79.94
4123;BME280;2075;51.062;6.920;2022-12-18T14:22:45;95387.28;;;-144.48;80.53
4123;BME280;2075;51.062;6.920;2022-12-18T14:25:31;95316.16;;;-144.48;80.82
4123;BME280;2075;51.062;6.920;2022-12-18T14:28:18;95397.47;;;-144.48;80.93
4123;BME280;2075;51.062;6.920;2022-12-18T14:31:17;95391.34;;;-144.48;80.53
4123;BME280;2075;51.062;6.920;2022-12-18T14:34:04;95397.47;;;-144.48;80.52
4123;BME280;2075;51.062;6.920;2022-12-18T14:36:52;95389.31;;;-144.48;80.73
4123;BME280;2075;51.062;6.920;2022-12-18T14:39:38;95397.47;;;-144.48;81.01
4123;BME280;2075;51.062;6.920;2022-12-18T14:42:24;95399.50;;;-144.48;80.99
4123;BME280;2075;51.062;6.920;2022-12-18T14:45:38;95383.22;;;-144.48;80.65
4123;BME280;2075;51.062;6.920;2022-12-18T14:48:34;95362.91;;;-144.48;81.11
4123;BME280;2075;51.062;6.920;2022-12-18T14:51:23;95383.22;;;-144.48;81.25